Atqasuk, Alaska
Current Conditions -  °F | °C
As of 1:20 PM on Monday 26 Jan 2015 (Local Time) from PATQ Reporting Station
Light Snow Light Snow  
Wind Chill: -48°   Ceiling: Unl
Heat Index: -33°   Visibility: 1.2mi
Dew Point: -37°   Wind: 14mph
Humidity: 69%   Direction: 270°W
Pressure: 30.22"   Gusts: NA
Location:  70.47°N, 157.4°W
Report Text: PATQ 262220Z AUTO 27012KT 1 1/4SM -SN CLR M33/M37 A3022 RMK AO2 TSNO P0000 $
Loading
Personal Weather Stations






























Interactive Weather Map New forecast layout! Learn more

10-Day Weather Forecast

Advertisements
Track Severe Weather on mobile